TTPP/POS METAR and TAF weather

Enter ICAO airport designator
Station Type Date Time Source
TTPP METAR 2019/06/18 05:00 UTC NOAA

TTPP 180500Z 12005KT 9999 FEW015 25/24 Q1015 NOSIG


Station Type Date Time Source
TTPP Decoded METAR 2019/06/18 05:00 UTC NOAA

Piarco International Airport, Trinidad, Trinidad and Tobago (TTPP) 10-37N 061-21W 15M
Jun 18, 2019 - 01:00 AM EDT / 2019.06.18 0500 UTC
Wind: from the ESE (120 degrees) at 6 MPH (5 KT):0
Visibility: greater than 7 mile(s):0
Sky conditions: mostly clear
Temperature: 77 F (25 C)
Dew Point: 75 F (24 C)
Relative Humidity: 94%
Pressure (altimeter): 29.97 in. Hg (1015 hPa)
ob: TTPP 180500Z 12005KT 9999 FEW015 25/24 Q1015 NOSIG
cycle: 5

Station Type Date Time Source
TTPP TAF 2019/06/18 06:24 UTC NOAA

TAF TTPP 180400Z 1806/1906 10010KT 8000 SHRA SCT014 SCT034
TEMPO 1807/1821 5000 SHRA BKN014
BECMG 1811/1813 12015KT PROB40
TEMPO 1812/1821 VRB15G35KT 8000 TSRA FEW010CB BKN012TCU
BECMG 1823/1901 11010KT 9999 FEW16 SCT038 PROB30
TEMPO 1902/1906 8000 SHRA SCT015 SCT036

Example: see airport list